地図

経路データ

SID SEASON NUMBER BASIN SUBBASIN NAME ISO_TIME NATURE LAT LON WMO_WIND WMO_PRES WMO_AGENCY TRACK_TYPE DIST2LAND LANDFALL IFLAG USA_AGENCY USA_ATCF_ID USA_LAT USA_LON USA_RECORD USA_STATUS USA_WIND USA_PRES USA_SSHS USA_R34_NE USA_R34_SE USA_R34_SW USA_R34_NW USA_R50_NE USA_R50_SE USA_R50_SW USA_R50_NW USA_R64_NE USA_R64_SE USA_R64_SW USA_R64_NW USA_POCI USA_ROCI USA_RMW USA_EYE TOKYO_LAT TOKYO_LON TOKYO_GRADE TOKYO_WIND TOKYO_PRES TOKYO_R50_DIR TOKYO_R50_LONG TOKYO_R50_SHORT TOKYO_R30_DIR TOKYO_R30_LONG TOKYO_R30_SHORT TOKYO_LAND CMA_LAT CMA_LON CMA_CAT CMA_WIND CMA_PRES HKO_LAT HKO_LON HKO_CAT HKO_WIND HKO_PRES NEWDELHI_LAT NEWDELHI_LON NEWDELHI_GRADE NEWDELHI_WIND NEWDELHI_PRES NEWDELHI_CI NEWDELHI_DP NEWDELHI_POCI REUNION_LAT REUNION_LON REUNION_TYPE REUNION_WIND REUNION_PRES REUNION_TNUM REUNION_CI REUNION_RMW REUNION_R34_NE REUNION_R34_SE REUNION_R34_SW REUNION_R34_NW REUNION_R50_NE REUNION_R50_SE REUNION_R50_SW REUNION_R50_NW REUNION_R64_NE REUNION_R64_SE REUNION_R64_SW REUNION_R64_NW BOM_LAT BOM_LON BOM_TYPE BOM_WIND BOM_PRES BOM_TNUM BOM_CI BOM_RMW BOM_R34_NE BOM_R34_SE BOM_R34_SW BOM_R34_NW BOM_R50_NE BOM_R50_SE BOM_R50_SW BOM_R50_NW BOM_R64_NE BOM_R64_SE BOM_R64_SW BOM_R64_NW BOM_ROCI BOM_POCI BOM_EYE BOM_POS_METHOD BOM_PRES_METHOD NADI_LAT NADI_LON NADI_CAT NADI_WIND NADI_PRES WELLINGTON_LAT WELLINGTON_LON WELLINGTON_WIND WELLINGTON_PRES DS824_LAT DS824_LON DS824_STAGE DS824_WIND DS824_PRES TD9636_LAT TD9636_LON TD9636_STAGE TD9636_WIND TD9636_PRES TD9635_LAT TD9635_LON TD9635_WIND TD9635_PRES TD9635_ROCI NEUMANN_LAT NEUMANN_LON NEUMANN_CLASS NEUMANN_WIND NEUMANN_PRES MLC_LAT MLC_LON MLC_CLASS MLC_WIND MLC_PRES USA_GUST BOM_GUST BOM_GUST_PER REUNION_GUST REUNION_GUST_PER USA_SEAHGT USA_SEARAD_NE USA_SEARAD_SE USA_SEARAD_SW USA_SEARAD_NW STORM_SPEED STORM_DIR
1996312N13251 1996 110 EP MM NOT_NAMED 1996-11-07 00:00:00 TS 12.5000 -109.200 30 hurdat_epa main 885 885 O_____________ hurdat_epa EP121996 12.5000 -109.200 TD 30 -1 15 274
1996312N13251 1996 110 EP MM NOT_NAMED 1996-11-07 03:00:00 TS 12.5455 -109.952 main 933 924 P_____________ EP121996 12.5455 -109.952 TD 30 -1 15 274
1996312N13251 1996 110 EP MM NOT_NAMED 1996-11-07 06:00:00 TS 12.6000 -110.700 30 hurdat_epa main 971 971 O_____________ hurdat_epa EP121996 12.6000 -110.700 TD 30 -1 15 275
1996312N13251 1996 110 EP MM NOT_NAMED 1996-11-07 09:00:00 TS 12.6772 -111.443 main 1013 1013 P_____________ EP121996 12.6772 -111.443 TD 30 -1 15 278
1996312N13251 1996 110 EP MM NOT_NAMED 1996-11-07 12:00:00 TS 12.8000 -112.200 30 hurdat_epa main 1066 1066 O_____________ hurdat_epa EP121996 12.8000 -112.200 TD 30 -1 15 283
1996312N13251 1996 110 EP MM NOT_NAMED 1996-11-07 15:00:00 TS 13.0146 -112.970 main 1112 1112 P_____________ EP121996 13.0146 -112.970 TD 30 -1 16 284
1996312N13251 1996 110 EP MM NOT_NAMED 1996-11-07 18:00:00 TS 13.2000 -113.800 30 hurdat_epa main 1157 1157 O_____________ hurdat_epa EP121996 13.2000 -113.800 TD 30 -1 17 277
1996312N13251 1996 110 EP MM NOT_NAMED 1996-11-07 21:00:00 TS 13.2301 -114.750 main 1197 1197 P_____________ EP121996 13.2301 -114.750 TD 30 -1 19 270
1996312N13251 1996 110 EP MM NOT_NAMED 1996-11-08 00:00:00 TS 13.2000 -115.700 30 hurdat_epa main 1240 1240 O_____________ hurdat_epa EP121996 13.2000 -115.700 TD 30 -1 17 268
1996312N13251 1996 110 EP MM NOT_NAMED 1996-11-08 03:00:00 TS 13.1846 -116.530 main 1283 1283 P_____________ EP121996 13.1846 -116.530 TD 30 -1 16 270
1996312N13251 1996 110 EP MM NOT_NAMED 1996-11-08 06:00:00 TS 13.2000 -117.300 30 hurdat_epa main 1331 1331 O_____________ hurdat_epa EP121996 13.2000 -117.300 TD 30 -1 15 274
1996312N13251 1996 110 EP MM NOT_NAMED 1996-11-08 09:00:00 TS 13.2773 -118.072 main 1372 1372 P_____________ EP121996 13.2773 -118.072 TD 30 -1 15 278
1996312N13251 1996 110 EP MM NOT_NAMED 1996-11-08 12:00:00 TS 13.4000 -118.800 30 hurdat_epa main 1411 1411 O_____________ hurdat_epa EP121996 13.4000 -118.800 TD 30 -1 14 281
1996312N13251 1996 110 EP MM NOT_NAMED 1996-11-08 15:00:00 TS 13.5348 -119.480 main 1452 1451 P_____________ EP121996 13.5348 -119.480 TD 30 -1 13 283
1996312N13251 1996 110 EP MM NOT_NAMED 1996-11-08 18:00:00 TS 13.7000 -120.100 30 hurdat_epa main 1480 1480 O_____________ hurdat_epa EP121996 13.7000 -120.100 TD 30 -1 12 287
1996312N13251 1996 110 EP MM NOT_NAMED 1996-11-08 21:00:00 TS 13.8999 -120.695 main 1506 1504 P_____________ EP121996 13.8999 -120.695 TD 30 -1 11 291
1996312N13251 1996 110 EP MM NOT_NAMED 1996-11-09 00:00:00 TS 14.1000 -121.200 30 hurdat_epa main 1520 1518 O_____________ hurdat_epa EP121996 14.1000 -121.200 TD 30 -1 9 293
1996312N13251 1996 110 EP MM NOT_NAMED 1996-11-09 03:00:00 TS 14.2648 -121.573 main 1529 1529 P_____________ EP121996 14.2648 -121.573 TD 30 -1 7 294
1996312N13251 1996 110 EP MM NOT_NAMED 1996-11-09 06:00:00 TS 14.4000 -121.900 30 hurdat_epa main 1541 1541 O_____________ hurdat_epa EP121996 14.4000 -121.900 TD 30 -1 7 288
1996312N13251 1996 110 EP MM NOT_NAMED 1996-11-09 09:00:00 TS 14.5000 -122.300 main 1561 1561 P_____________ EP121996 14.5000 -122.300 TD 30 -1 8 284
1996312N13251 1996 110 EP MM NOT_NAMED 1996-11-09 12:00:00 TS 14.6000 -122.700 30 hurdat_epa main 1582 1581 O_____________ hurdat_epa EP121996 14.6000 -122.700 TD 30 -1 8 290
1996312N13251 1996 110 EP MM NOT_NAMED 1996-11-09 15:00:00 TS 14.7574 -123.050 main 1588 1588 P_____________ EP121996 14.7574 -123.050 TD 30 -1 7 294
1996312N13251 1996 110 EP MM NOT_NAMED 1996-11-09 18:00:00 TS 14.9000 -123.400 30 hurdat_epa main 1610 1610 O_____________ hurdat_epa EP121996 14.9000 -123.400 TD 30 -1 7 286
1996312N13251 1996 110 EP MM NOT_NAMED 1996-11-09 21:00:00 TS 14.9575 -123.793 main 1632 1632 P_____________ EP121996 14.9575 -123.793 TD 27 -1 8 277
1996312N13251 1996 110 EP MM NOT_NAMED 1996-11-10 00:00:00 TS 15.0000 -124.200 25 hurdat_epa main 1664 1664 O_____________ hurdat_epa EP121996 15.0000 -124.200 TD 25 -1 8 279
1996312N13251 1996 110 EP MM NOT_NAMED 1996-11-10 03:00:00 TS 15.0850 -124.615 main 1688 1688 P_____________ EP121996 15.0850 -124.615 TD 25 -1 8 285
1996312N13251 1996 110 EP MM NOT_NAMED 1996-11-10 06:00:00 TS 15.2000 -125.000 25 hurdat_epa main 1713 1713 O_____________ hurdat_epa EP121996 15.2000 -125.000 TD 25 -1 7 292
1996312N13251 1996 110 EP MM NOT_NAMED 1996-11-10 09:00:00 TS 15.3499 -125.308 main 1730 1723 P_____________ EP121996 15.3499 -125.308 TD 22 -1 7 297
1996312N13251 1996 110 EP MM NOT_NAMED 1996-11-10 12:00:00 TS 15.5000 -125.600 20 hurdat_epa main 1740 1740 O_____________ hurdat_epa EP121996 15.5000 -125.600 TD 20 -1 7 294
1996312N13251 1996 110 EP MM NOT_NAMED 1996-11-10 15:00:00 TS 15.6225 -125.942 main 1758 1758 P_____________ EP121996 15.6225 -125.942 TD 20 -1 7 287
1996312N13251 1996 110 EP MM NOT_NAMED 1996-11-10 18:00:00 TS 15.7000 -126.300 20 hurdat_epa main 1775 1775 O_____________ hurdat_epa EP121996 15.7000 -126.300 TD 20 -1 7 278
1996312N13251 1996 110 EP MM NOT_NAMED 1996-11-10 21:00:00 TS 15.7225 -126.665 main 1803 1803 P_____________ EP121996 15.7225 -126.665 TD 22 -1 7 270
1996312N13251 1996 110 EP MM NOT_NAMED 1996-11-11 00:00:00 TS 15.7000 -127.000 25 hurdat_epa main 1824 1824 O_____________ hurdat_epa EP121996 15.7000 -127.000 TD 25 -1 6 264
1996312N13251 1996 110 EP MM NOT_NAMED 1996-11-11 03:00:00 TS 15.6574 -127.265 main 1845 1845 P_____________ EP121996 15.6574 -127.265 TD 25 -1 5 258
1996312N13251 1996 110 EP MM NOT_NAMED 1996-11-11 06:00:00 TS 15.6000 -127.500 25 hurdat_epa main 1867 1867 O_____________ hurdat_epa EP121996 15.6000 -127.500 TD 25 -1 5 257
1996312N13251 1996 110 EP MM NOT_NAMED 1996-11-11 09:00:00 TS 15.5476 -127.745 main 1890 1890 P_____________ EP121996 15.5476 -127.745 TD 22 -1 5 258
1996312N13251 1996 110 EP MM NOT_NAMED 1996-11-11 12:00:00 TS 15.5000 -128.000 20 hurdat_epa main 1911 O_____________ hurdat_epa EP121996 15.5000 -128.000 TD 20 -1 5 259

IBTrACS Databaseについて

本データベースは、米国NOAAが公開する1842年以降の世界の熱帯低気圧のベストトラックデータアーカイブInternational Best Track Archive for Climate Stewardship (IBTrACS)を、ウェブで閲覧しやすい形式に変換したものです。

最終更新日:2021-10-27